sensor_id;sensor_type;location;lat;lon;timestamp;pressure;altitude;pressure_sealevel;temperature;humidity
39223;BME280;24936;46.328;11.026;2023-02-13T00:01:01;96170.50;;;-1.97;75.93
39223;BME280;24936;46.328;11.026;2023-02-13T00:03:26;96175.09;;;-2.20;77.05
39223;BME280;24936;46.328;11.026;2023-02-13T00:05:51;96173.75;;;-2.49;78.01
39223;BME280;24936;46.328;11.026;2023-02-13T00:08:17;96184.88;;;-2.45;78.28
39223;BME280;24936;46.328;11.026;2023-02-13T00:10:42;96179.66;;;-2.39;78.25
39223;BME280;24936;46.328;11.026;2023-02-13T00:13:07;96177.75;;;-2.24;77.66
39223;BME280;24936;46.328;11.026;2023-02-13T00:15:33;96182.00;;;-2.22;78.02
39223;BME280;24936;46.328;11.026;2023-02-13T00:17:58;96189.63;;;-2.14;78.05
39223;BME280;24936;46.328;11.026;2023-02-13T00:20:24;96181.44;;;-1.81;76.10
39223;BME280;24936;46.328;11.026;2023-02-13T00:22:49;96194.31;;;-1.80;75.42
39223;BME280;24936;46.328;11.026;2023-02-13T00:25:14;96189.41;;;-1.95;75.87
39223;BME280;24936;46.328;11.026;2023-02-13T00:27:40;96187.03;;;-2.11;76.46
39223;BME280;24936;46.328;11.026;2023-02-13T00:30:06;96190.41;;;-2.07;76.59
39223;BME280;24936;46.328;11.026;2023-02-13T00:32:31;96188.53;;;-1.96;76.20
39223;BME280;24936;46.328;11.026;2023-02-13T00:34:57;96190.44;;;-2.10;77.02
39223;BME280;24936;46.328;11.026;2023-02-13T00:37:23;96187.91;;;-2.13;76.57
39223;BME280;24936;46.328;11.026;2023-02-13T00:39:48;96200.72;;;-2.09;76.67
39223;BME280;24936;46.328;11.026;2023-02-13T00:42:14;96200.03;;;-1.59;74.99
39223;BME280;24936;46.328;11.026;2023-02-13T00:44:39;96198.41;;;-1.65;74.65
39223;BME280;24936;46.328;11.026;2023-02-13T00:47:04;96210.94;;;-2.00;75.73
39223;BME280;24936;46.328;11.026;2023-02-13T00:49:30;96204.31;;;-2.18;76.27
39223;BME280;24936;46.328;11.026;2023-02-13T00:51:55;96207.94;;;-2.31;76.89
39223;BME280;24936;46.328;11.026;2023-02-13T00:54:21;96208.00;;;-2.37;77.53
39223;BME280;24936;46.328;11.026;2023-02-13T00:56:47;96210.50;;;-2.31;77.93
39223;BME280;24936;46.328;11.026;2023-02-13T00:59:13;96204.34;;;-2.21;78.43
39223;BME280;24936;46.328;11.026;2023-02-13T01:01:38;96198.78;;;-1.90;77.92
39223;BME280;24936;46.328;11.026;2023-02-13T01:04:04;96203.84;;;-1.83;78.38
39223;BME280;24936;46.328;11.026;2023-02-13T01:06:29;96204.88;;;-1.95;78.12
39223;BME280;24936;46.328;11.026;2023-02-13T01:08:54;96202.41;;;-2.03;78.24
39223;BME280;24936;46.328;11.026;2023-02-13T01:11:20;96195.47;;;-2.00;78.14
39223;BME280;24936;46.328;11.026;2023-02-13T01:13:45;96201.66;;;-2.15;78.56
39223;BME280;24936;46.328;11.026;2023-02-13T01:16:11;96202.53;;;-2.14;78.84
39223;BME280;24936;46.328;11.026;2023-02-13T01:18:36;96199.06;;;-2.11;79.13
39223;BME280;24936;46.328;11.026;2023-02-13T01:21:06;96205.19;;;-2.20;79.29
39223;BME280;24936;46.328;11.026;2023-02-13T01:23:34;96206.72;;;-2.05;78.29
39223;BME280;24936;46.328;11.026;2023-02-13T01:26:06;96206.88;;;-2.16;78.57
39223;BME280;24936;46.328;11.026;2023-02-13T01:28:32;96213.03;;;-2.28;78.64
39223;BME280;24936;46.328;11.026;2023-02-13T01:30:58;96214.63;;;-2.19;78.19
39223;BME280;24936;46.328;11.026;2023-02-13T01:33:25;96215.66;;;-2.31;78.43
39223;BME280;24936;46.328;11.026;2023-02-13T01:35:51;96221.63;;;-2.27;78.74
39223;BME280;24936;46.328;11.026;2023-02-13T01:38:17;96215.66;;;-2.33;78.53
39223;BME280;24936;46.328;11.026;2023-02-13T01:40:52;96222.72;;;-2.47;79.26
39223;BME280;24936;46.328;11.026;2023-02-13T01:43:18;96224.53;;;-2.54;79.56
39223;BME280;24936;46.328;11.026;2023-02-13T01:45:53;96221.72;;;-2.35;79.29
39223;BME280;24936;46.328;11.026;2023-02-13T01:48:25;96220.66;;;-2.20;78.58
39223;BME280;24936;46.328;11.026;2023-02-13T01:51:04;96210.31;;;-2.17;77.76
39223;BME280;24936;46.328;11.026;2023-02-13T01:53:35;96209.06;;;-2.52;78.50
39223;BME280;24936;46.328;11.026;2023-02-13T01:58:35;96216.16;;;-2.76;79.80
39223;BME280;24936;46.328;11.026;2023-02-13T02:01:01;96211.09;;;-2.84;80.48
39223;BME280;24936;46.328;11.026;2023-02-13T02:03:34;96210.38;;;-2.98;81.18
39223;BME280;24936;46.328;11.026;2023-02-13T02:06:02;96215.69;;;-3.15;81.69
39223;BME280;24936;46.328;11.026;2023-02-13T02:08:28;96215.78;;;-3.26;82.19
39223;BME280;24936;46.328;11.026;2023-02-13T02:10:57;96216.56;;;-3.16;81.68
39223;BME280;24936;46.328;11.026;2023-02-13T02:13:26;96219.03;;;-3.04;81.19
39223;BME280;24936;46.328;11.026;2023-02-13T02:15:51;96216.34;;;-2.93;80.83
39223;BME280;24936;46.328;11.026;2023-02-13T02:18:19;96214.56;;;-2.86;80.19
39223;BME280;24936;46.328;11.026;2023-02-13T02:21:59;96217.16;;;-2.88;80.45
39223;BME280;24936;46.328;11.026;2023-02-13T02:24:07;96214.38;;;-2.69;79.95
39223;BME280;24936;46.328;11.026;2023-02-13T02:26:55;96212.75;;;-2.78;79.50
39223;BME280;24936;46.328;11.026;2023-02-13T02:32:05;96215.03;;;-2.52;78.55
39223;BME280;24936;46.328;11.026;2023-02-13T02:40:23;96205.19;;;-2.92;79.45
39223;BME280;24936;46.328;11.026;2023-02-13T02:57:16;96212.13;;;-3.02;80.68
39223;BME280;24936;46.328;11.026;2023-02-13T02:59:45;96204.28;;;-2.88;80.34
39223;BME280;24936;46.328;11.026;2023-02-13T03:02:31;96201.78;;;-2.97;80.76
39223;BME280;24936;46.328;11.026;2023-02-13T03:05:23;96211.03;;;-2.78;80.70
39223;BME280;24936;46.328;11.026;2023-02-13T03:08:09;96201.22;;;-2.44;78.88
39223;BME280;24936;46.328;11.026;2023-02-13T03:10:36;96203.09;;;-2.59;79.19
39223;BME280;24936;46.328;11.026;2023-02-13T03:13:43;96195.81;;;-3.01;80.31
39223;BME280;24936;46.328;11.026;2023-02-13T03:16:19;96208.09;;;-3.31;81.65
39223;BME280;24936;46.328;11.026;2023-02-13T03:19:04;96202.34;;;-3.59;82.48
39223;BME280;24936;46.328;11.026;2023-02-13T03:22:05;96204.03;;;-3.57;83.03
39223;BME280;24936;46.328;11.026;2023-02-13T03:27:32;96214.50;;;-3.78;82.98
39223;BME280;24936;46.328;11.026;2023-02-13T03:35:49;96202.38;;;-3.65;83.32
39223;BME280;24936;46.328;11.026;2023-02-13T03:39:02;96207.34;;;-3.42;82.96
39223;BME280;24936;46.328;11.026;2023-02-13T03:41:54;96196.88;;;-3.22;82.36
39223;BME280;24936;46.328;11.026;2023-02-13T03:45:01;96202.97;;;-3.29;82.19
39223;BME280;24936;46.328;11.026;2023-02-13T03:47:38;96206.44;;;-3.33;81.99
39223;BME280;24936;46.328;11.026;2023-02-13T03:54:04;96214.78;;;-3.10;81.05
39223;BME280;24936;46.328;11.026;2023-02-13T03:56:32;96201.84;;;-3.00;81.27
39223;BME280;24936;46.328;11.026;2023-02-13T03:59:24;96195.13;;;-3.17;80.51
39223;BME280;24936;46.328;11.026;2023-02-13T04:02:12;96204.47;;;-3.10;80.91
39223;BME280;24936;46.328;11.026;2023-02-13T04:04:51;96202.78;;;-3.09;80.77
39223;BME280;24936;46.328;11.026;2023-02-13T04:07:20;96205.50;;;-3.26;80.55
39223;BME280;24936;46.328;11.026;2023-02-13T04:09:59;96214.28;;;-3.49;80.99
39223;BME280;24936;46.328;11.026;2023-02-13T04:15:42;96212.47;;;-3.41;81.38
39223;BME280;24936;46.328;11.026;2023-02-13T04:20:40;96213.25;;;-3.29;81.17
39223;BME280;24936;46.328;11.026;2023-02-13T04:23:07;96215.88;;;-3.35;81.06
39223;BME280;24936;46.328;11.026;2023-02-13T04:25:32;96214.22;;;-3.41;81.53
39223;BME280;24936;46.328;11.026;2023-02-13T04:27:58;96211.63;;;-3.38;81.55
39223;BME280;24936;46.328;11.026;2023-02-13T04:30:24;96207.03;;;-3.07;80.78
39223;BME280;24936;46.328;11.026;2023-02-13T04:32:49;96208.97;;;-3.29;81.44
39223;BME280;24936;46.328;11.026;2023-02-13T04:35:15;96211.44;;;-3.19;81.50
39223;BME280;24936;46.328;11.026;2023-02-13T04:37:42;96201.56;;;-3.69;82.08
39223;BME280;24936;46.328;11.026;2023-02-13T04:40:08;96211.06;;;-3.82;83.20
39223;BME280;24936;46.328;11.026;2023-02-13T04:42:33;96198.06;;;-3.60;82.67
39223;BME280;24936;46.328;11.026;2023-02-13T04:44:58;96203.28;;;-3.68;82.99
39223;BME280;24936;46.328;11.026;2023-02-13T04:47:24;96199.88;;;-3.72;82.95
39223;BME280;24936;46.328;11.026;2023-02-13T04:49:49;96197.06;;;-3.42;82.07
39223;BME280;24936;46.328;11.026;2023-02-13T04:52:14;96192.78;;;-3.42;81.77
39223;BME280;24936;46.328;11.026;2023-02-13T04:54:40;96191.16;;;-3.54;82.12
39223;BME280;24936;46.328;11.026;2023-02-13T04:57:05;96192.09;;;-3.65;82.29
39223;BME280;24936;46.328;11.026;2023-02-13T04:59:31;96183.59;;;-3.77;82.98
39223;BME280;24936;46.328;11.026;2023-02-13T05:01:56;96184.47;;;-3.79;83.33
39223;BME280;24936;46.328;11.026;2023-02-13T05:04:23;96194.69;;;-3.69;83.03
39223;BME280;24936;46.328;11.026;2023-02-13T05:06:49;96198.84;;;-3.52;82.02
39223;BME280;24936;46.328;11.026;2023-02-13T05:09:14;96197.91;;;-3.40;81.51
39223;BME280;24936;46.328;11.026;2023-02-13T05:11:40;96189.34;;;-3.45;81.59
39223;BME280;24936;46.328;11.026;2023-02-13T05:14:05;96196.38;;;-3.63;81.61
39223;BME280;24936;46.328;11.026;2023-02-13T05:16:30;96194.78;;;-3.79;82.20
39223;BME280;24936;46.328;11.026;2023-02-13T05:18:56;96196.56;;;-3.91;83.15
39223;BME280;24936;46.328;11.026;2023-02-13T05:21:21;96190.44;;;-3.73;83.47
39223;BME280;24936;46.328;11.026;2023-02-13T05:24:05;96193.03;;;-3.79;83.34
39223;BME280;24936;46.328;11.026;2023-02-13T05:26:31;96189.59;;;-3.78;83.18
39223;BME280;24936;46.328;11.026;2023-02-13T05:28:56;96183.56;;;-3.71;83.63
39223;BME280;24936;46.328;11.026;2023-02-13T05:31:40;96185.97;;;-3.50;82.63
39223;BME280;24936;46.328;11.026;2023-02-13T05:34:06;96186.72;;;-3.41;82.12
39223;BME280;24936;46.328;11.026;2023-02-13T05:36:34;96186.09;;;-3.63;82.31
39223;BME280;24936;46.328;11.026;2023-02-13T05:38:59;96183.50;;;-3.64;82.80
39223;BME280;24936;46.328;11.026;2023-02-13T05:41:25;96194.03;;;-3.97;83.43
39223;BME280;24936;46.328;11.026;2023-02-13T05:43:51;96200.13;;;-4.12;84.00
39223;BME280;24936;46.328;11.026;2023-02-13T05:46:16;96202.75;;;-4.21;84.44
39223;BME280;24936;46.328;11.026;2023-02-13T05:48:41;96210.50;;;-4.29;84.70
39223;BME280;24936;46.328;11.026;2023-02-13T05:51:07;96204.50;;;-4.26;85.12
39223;BME280;24936;46.328;11.026;2023-02-13T05:53:32;96206.94;;;-4.05;85.04
39223;BME280;24936;46.328;11.026;2023-02-13T05:56:00;96202.66;;;-4.06;84.70
39223;BME280;24936;46.328;11.026;2023-02-13T05:58:27;96201.72;;;-3.94;84.58
39223;BME280;24936;46.328;11.026;2023-02-13T06:00:55;96197.56;;;-4.15;84.87
39223;BME280;24936;46.328;11.026;2023-02-13T06:03:21;96210.41;;;-4.10;84.98
39223;BME280;24936;46.328;11.026;2023-02-13T06:05:46;96208.72;;;-4.13;85.03
39223;BME280;24936;46.328;11.026;2023-02-13T06:08:12;96208.69;;;-4.08;85.25
39223;BME280;24936;46.328;11.026;2023-02-13T06:10:37;96217.31;;;-4.20;85.24
39223;BME280;24936;46.328;11.026;2023-02-13T06:13:03;96217.34;;;-4.28;85.69
39223;BME280;24936;46.328;11.026;2023-02-13T06:15:28;96218.97;;;-4.08;85.47
39223;BME280;24936;46.328;11.026;2023-02-13T06:17:53;96220.72;;;-4.15;85.60
39223;BME280;24936;46.328;11.026;2023-02-13T06:20:19;96220.59;;;-3.96;84.95
39223;BME280;24936;46.328;11.026;2023-02-13T06:22:48;96228.47;;;-4.24;85.11
39223;BME280;24936;46.328;11.026;2023-02-13T06:25:13;96223.38;;;-4.34;85.21
39223;BME280;24936;46.328;11.026;2023-02-13T06:27:38;96226.91;;;-4.53;85.88
39223;BME280;24936;46.328;11.026;2023-02-13T06:30:04;96234.59;;;-4.50;86.15
39223;BME280;24936;46.328;11.026;2023-02-13T06:32:30;96231.09;;;-4.37;85.80
39223;BME280;24936;46.328;11.026;2023-02-13T06:34:55;96235.41;;;-4.39;85.60
39223;BME280;24936;46.328;11.026;2023-02-13T06:37:20;96230.22;;;-4.28;85.71
39223;BME280;24936;46.328;11.026;2023-02-13T06:39:46;96234.50;;;-4.25;85.76
39223;BME280;24936;46.328;11.026;2023-02-13T06:42:11;96242.09;;;-4.07;85.23
39223;BME280;24936;46.328;11.026;2023-02-13T06:44:36;96230.91;;;-3.98;85.15
39223;BME280;24936;46.328;11.026;2023-02-13T06:47:02;96225.56;;;-3.69;84.17
39223;BME280;24936;46.328;11.026;2023-02-13T06:49:27;96234.16;;;-3.68;83.88
39223;BME280;24936;46.328;11.026;2023-02-13T06:51:53;96232.50;;;-3.77;84.14
39223;BME280;24936;46.328;11.026;2023-02-13T06:54:18;96235.06;;;-3.74;84.68
39223;BME280;24936;46.328;11.026;2023-02-13T06:56:43;96231.50;;;-3.59;84.31
39223;BME280;24936;46.328;11.026;2023-02-13T06:59:09;96229.53;;;-3.27;82.79
39223;BME280;24936;46.328;11.026;2023-02-13T07:01:34;96226.25;;;-3.42;83.01
39223;BME280;24936;46.328;11.026;2023-02-13T07:03:59;96224.53;;;-3.44;83.39
39223;BME280;24936;46.328;11.026;2023-02-13T07:06:25;96226.31;;;-3.51;83.68
39223;BME280;24936;46.328;11.026;2023-02-13T07:08:50;96233.09;;;-3.41;83.57
39223;BME280;24936;46.328;11.026;2023-02-13T07:11:20;96226.16;;;-3.32;83.01
39223;BME280;24936;46.328;11.026;2023-02-13T07:13:46;96225.25;;;-3.27;82.94
39223;BME280;24936;46.328;11.026;2023-02-13T07:16:12;96225.91;;;-3.04;82.79
39223;BME280;24936;46.328;11.026;2023-02-13T07:18:37;96232.53;;;-2.79;81.61
39223;BME280;24936;46.328;11.026;2023-02-13T07:21:03;96232.75;;;-2.24;79.90
39223;BME280;24936;46.328;11.026;2023-02-13T07:23:28;96227.97;;;-1.88;77.67
39223;BME280;24936;46.328;11.026;2023-02-13T07:25:53;96227.94;;;-1.85;77.41
39223;BME280;24936;46.328;11.026;2023-02-13T07:28:19;96231.47;;;-1.89;77.39
39223;BME280;24936;46.328;11.026;2023-02-13T07:30:45;96230.03;;;-2.10;78.24
39223;BME280;24936;46.328;11.026;2023-02-13T07:33:10;96234.44;;;-2.21;79.27
39223;BME280;24936;46.328;11.026;2023-02-13T07:35:36;96236.19;;;-2.22;79.57
39223;BME280;24936;46.328;11.026;2023-02-13T07:38:03;96230.19;;;-2.24;79.61
39223;BME280;24936;46.328;11.026;2023-02-13T07:40:29;96234.34;;;-2.13;79.46
39223;BME280;24936;46.328;11.026;2023-02-13T07:42:55;96237.59;;;-1.97;79.33
39223;BME280;24936;46.328;11.026;2023-02-13T07:45:23;96233.13;;;-1.86;78.62
39223;BME280;24936;46.328;11.026;2023-02-13T07:47:49;96222.59;;;-1.72;78.24
39223;BME280;24936;46.328;11.026;2023-02-13T07:50:14;96227.56;;;-1.60;78.06
39223;BME280;24936;46.328;11.026;2023-02-13T07:52:40;96219.59;;;-1.43;78.18
39223;BME280;24936;46.328;11.026;2023-02-13T07:55:05;96227.97;;;-0.78;77.55
39223;BME280;24936;46.328;11.026;2023-02-13T07:57:32;96222.97;;;-0.42;74.13
39223;BME280;24936;46.328;11.026;2023-02-13T07:59:57;96225.13;;;-0.20;73.20
39223;BME280;24936;46.328;11.026;2023-02-13T08:02:23;96232.28;;;-0.33;73.07
39223;BME280;24936;46.328;11.026;2023-02-13T08:04:48;96223.41;;;-0.64;73.70
39223;BME280;24936;46.328;11.026;2023-02-13T08:07:15;96216.81;;;-0.82;74.49
39223;BME280;24936;46.328;11.026;2023-02-13T08:09:43;96220.19;;;-0.77;75.13
39223;BME280;24936;46.328;11.026;2023-02-13T08:12:27;96219.22;;;-0.71;74.83
39223;BME280;24936;46.328;11.026;2023-02-13T08:14:53;96224.78;;;-0.47;74.09
39223;BME280;24936;46.328;11.026;2023-02-13T08:17:18;96214.72;;;-0.17;73.56
39223;BME280;24936;46.328;11.026;2023-02-13T08:19:44;96211.97;;;-0.09;72.20
39223;BME280;24936;46.328;11.026;2023-02-13T08:22:09;96218.63;;;0.03;71.59
39223;BME280;24936;46.328;11.026;2023-02-13T08:24:35;96217.31;;;0.22;70.65
39223;BME280;24936;46.328;11.026;2023-02-13T08:27:01;96218.66;;;0.76;69.21
39223;BME280;24936;46.328;11.026;2023-02-13T08:29:26;96213.13;;;0.54;69.37
39223;BME280;24936;46.328;11.026;2023-02-13T08:31:52;96206.19;;;0.56;69.84
39223;BME280;24936;46.328;11.026;2023-02-13T08:34:17;96213.22;;;0.51;69.94
39223;BME280;24936;46.328;11.026;2023-02-13T08:36:42;96209.00;;;0.47;70.27
39223;BME280;24936;46.328;11.026;2023-02-13T08:39:09;96210.78;;;0.45;70.79
39223;BME280;24936;46.328;11.026;2023-02-13T08:41:34;96204.72;;;0.46;71.54
39223;BME280;24936;46.328;11.026;2023-02-13T08:43:59;96209.44;;;0.65;70.99
39223;BME280;24936;46.328;11.026;2023-02-13T08:46:25;96207.81;;;0.60;70.83
39223;BME280;24936;46.328;11.026;2023-02-13T08:48:50;96204.13;;;0.71;71.15
39223;BME280;24936;46.328;11.026;2023-02-13T08:51:16;96203.56;;;0.93;69.90
39223;BME280;24936;46.328;11.026;2023-02-13T08:53:41;96195.44;;;1.06;68.21
39223;BME280;24936;46.328;11.026;2023-02-13T08:56:07;96193.41;;;1.18;67.66
39223;BME280;24936;46.328;11.026;2023-02-13T08:58:33;96195.72;;;1.29;67.11
39223;BME280;24936;46.328;11.026;2023-02-13T09:00:58;96190.00;;;1.49;66.79
39223;BME280;24936;46.328;11.026;2023-02-13T09:03:24;96189.22;;;2.35;65.39
39223;BME280;24936;46.328;11.026;2023-02-13T09:05:49;96181.59;;;3.84;60.90
39223;BME280;24936;46.328;11.026;2023-02-13T09:08:15;96177.84;;;5.84;56.55
39223;BME280;24936;46.328;11.026;2023-02-13T09:10:41;96167.97;;;7.02;52.06
39223;BME280;24936;46.328;11.026;2023-02-13T09:13:10;96167.81;;;7.23;50.10
39223;BME280;24936;46.328;11.026;2023-02-13T09:15:39;96165.53;;;8.49;47.09
39223;BME280;24936;46.328;11.026;2023-02-13T09:18:05;96161.94;;;9.87;46.44
39223;BME280;24936;46.328;11.026;2023-02-13T09:20:31;96152.16;;;9.60;42.78
39223;BME280;24936;46.328;11.026;2023-02-13T09:22:56;96167.94;;;9.60;42.23
39223;BME280;24936;46.328;11.026;2023-02-13T09:25:21;96155.38;;;11.05;40.77
39223;BME280;24936;46.328;11.026;2023-02-13T09:27:47;96161.22;;;10.83;40.16
39223;BME280;24936;46.328;11.026;2023-02-13T09:30:12;96160.53;;;10.94;39.60
39223;BME280;24936;46.328;11.026;2023-02-13T09:32:47;96162.88;;;10.71;39.17
39223;BME280;24936;46.328;11.026;2023-02-13T09:35:12;96163.41;;;11.04;39.37
39223;BME280;24936;46.328;11.026;2023-02-13T09:37:39;96162.44;;;12.10;38.58
39223;BME280;24936;46.328;11.026;2023-02-13T09:40:09;96159.66;;;12.24;36.81
39223;BME280;24936;46.328;11.026;2023-02-13T09:42:40;96160.19;;;12.66;39.11
39223;BME280;24936;46.328;11.026;2023-02-13T09:45:07;96152.88;;;13.30;34.82
39223;BME280;24936;46.328;11.026;2023-02-13T09:47:39;96152.00;;;15.11;30.85
39223;BME280;24936;46.328;11.026;2023-02-13T09:52:36;96157.44;;;14.43;32.58
39223;BME280;24936;46.328;11.026;2023-02-13T09:55:17;96144.38;;;13.85;32.51
39223;BME280;24936;46.328;11.026;2023-02-13T09:58:08;96154.34;;;13.93;32.40
39223;BME280;24936;46.328;11.026;2023-02-13T10:00:41;96152.31;;;14.07;35.12
39223;BME280;24936;46.328;11.026;2023-02-13T10:03:27;96141.19;;;14.48;30.48
39223;BME280;24936;46.328;11.026;2023-02-13T10:06:04;96143.66;;;15.58;30.80
39223;BME280;24936;46.328;11.026;2023-02-13T10:08:57;96135.84;;;14.59;30.46
39223;BME280;24936;46.328;11.026;2023-02-13T10:16:41;96136.06;;;14.01;31.99
39223;BME280;24936;46.328;11.026;2023-02-13T10:24:43;96129.03;;;13.54;32.36
39223;BME280;24936;46.328;11.026;2023-02-13T10:27:19;96120.03;;;14.25;32.34
39223;BME280;24936;46.328;11.026;2023-02-13T10:32:38;96120.34;;;15.83;28.52
39223;BME280;24936;46.328;11.026;2023-02-13T10:37:43;96102.22;;;13.59;31.24
39223;BME280;24936;46.328;11.026;2023-02-13T10:40:15;96102.00;;;13.62;32.46
39223;BME280;24936;46.328;11.026;2023-02-13T10:43:15;96095.28;;;13.69;33.18
39223;BME280;24936;46.328;11.026;2023-02-13T10:45:50;96095.19;;;12.15;34.14
39223;BME280;24936;46.328;11.026;2023-02-13T10:51:02;96084.06;;;12.23;34.35
39223;BME280;24936;46.328;11.026;2023-02-13T11:02:27;96064.22;;;14.72;31.32
39223;BME280;24936;46.328;11.026;2023-02-13T11:04:32;96060.03;;;12.99;32.93
39223;BME280;24936;46.328;11.026;2023-02-13T11:07:00;96054.81;;;12.50;34.24
39223;BME280;24936;46.328;11.026;2023-02-13T11:09:26;96052.69;;;12.56;34.77
39223;BME280;24936;46.328;11.026;2023-02-13T11:11:52;96050.34;;;12.39;33.10
39223;BME280;24936;46.328;11.026;2023-02-13T11:14:23;96038.97;;;14.13;31.42
39223;BME280;24936;46.328;11.026;2023-02-13T11:19:23;96033.22;;;13.62;32.15
39223;BME280;24936;46.328;11.026;2023-02-13T11:21:54;96027.34;;;14.36;29.77
39223;BME280;24936;46.328;11.026;2023-02-13T11:24:22;96043.13;;;13.24;31.56
39223;BME280;24936;46.328;11.026;2023-02-13T11:26:51;96035.50;;;13.55;32.98
39223;BME280;24936;46.328;11.026;2023-02-13T11:29:24;96026.88;;;13.06;31.41
39223;BME280;24936;46.328;11.026;2023-02-13T11:34:29;96021.91;;;13.94;30.46
39223;BME280;24936;46.328;11.026;2023-02-13T11:39:44;96019.88;;;14.95;28.63
39223;BME280;24936;46.328;11.026;2023-02-13T11:42:33;96017.94;;;13.66;30.91
39223;BME280;24936;46.328;11.026;2023-02-13T11:45:19;96011.09;;;13.40;31.50
39223;BME280;24936;46.328;11.026;2023-02-13T11:47:46;96013.09;;;12.67;33.31
39223;BME280;24936;46.328;11.026;2023-02-13T11:50:33;96017.41;;;13.26;33.83
39223;BME280;24936;46.328;11.026;2023-02-13T11:53:05;96013.28;;;13.58;32.64
39223;BME280;24936;46.328;11.026;2023-02-13T11:55:34;96012.03;;;13.39;32.11
39223;BME280;24936;46.328;11.026;2023-02-13T12:00:41;96003.88;;;13.76;32.58
39223;BME280;24936;46.328;11.026;2023-02-13T12:05:59;96011.59;;;12.27;34.49
39223;BME280;24936;46.328;11.026;2023-02-13T12:08:24;96013.06;;;12.91;34.70
39223;BME280;24936;46.328;11.026;2023-02-13T12:10:50;96003.75;;;13.55;32.94
39223;BME280;24936;46.328;11.026;2023-02-13T12:13:26;95991.78;;;14.06;32.24
39223;BME280;24936;46.328;11.026;2023-02-13T12:16:00;95994.13;;;14.86;29.63
39223;BME280;24936;46.328;11.026;2023-02-13T12:18:45;95998.31;;;15.31;30.57
39223;BME280;24936;46.328;11.026;2023-02-13T12:27:06;95979.03;;;14.12;30.29
39223;BME280;24936;46.328;11.026;2023-02-13T12:37:54;95970.88;;;15.11;29.32
39223;BME280;24936;46.328;11.026;2023-02-13T12:48:42;95967.22;;;15.12;30.05
39223;BME280;24936;46.328;11.026;2023-02-13T13:01:56;95943.91;;;15.47;29.51
39223;BME280;24936;46.328;11.026;2023-02-13T13:07:29;95930.28;;;15.61;29.10
39223;BME280;24936;46.328;11.026;2023-02-13T13:20:11;95930.66;;;14.63;29.32
39223;BME280;24936;46.328;11.026;2023-02-13T13:22:56;95921.59;;;14.45;30.50
39223;BME280;24936;46.328;11.026;2023-02-13T13:28:22;95918.38;;;15.05;28.53
39223;BME280;24936;46.328;11.026;2023-02-13T13:30:49;95916.38;;;14.97;29.53
39223;BME280;24936;46.328;11.026;2023-02-13T13:33:21;95918.25;;;14.85;29.13
39223;BME280;24936;46.328;11.026;2023-02-13T13:39:24;95914.69;;;14.00;29.87
39223;BME280;24936;46.328;11.026;2023-02-13T13:50:40;95921.78;;;14.32;29.92
39223;BME280;24936;46.328;11.026;2023-02-13T13:53:13;95912.13;;;14.10;29.89
39223;BME280;24936;46.328;11.026;2023-02-13T13:58:23;95907.31;;;14.36;29.49
39223;BME280;24936;46.328;11.026;2023-02-13T14:06:26;95910.63;;;14.71;32.67
39223;BME280;24936;46.328;11.026;2023-02-13T14:09:01;95909.84;;;14.37;31.42
39223;BME280;24936;46.328;11.026;2023-02-13T14:11:38;95905.16;;;13.76;31.90
39223;BME280;24936;46.328;11.026;2023-02-13T14:16:52;95900.97;;;13.39;32.04
39223;BME280;24936;46.328;11.026;2023-02-13T14:19:33;95899.47;;;13.81;31.00
39223;BME280;24936;46.328;11.026;2023-02-13T14:22:35;95898.72;;;13.46;30.95
39223;BME280;24936;46.328;11.026;2023-02-13T14:25:05;95898.56;;;13.59;30.96
39223;BME280;24936;46.328;11.026;2023-02-13T14:27:36;95894.47;;;13.66;30.76
39223;BME280;24936;46.328;11.026;2023-02-13T14:30:04;95897.81;;;13.80;30.96
39223;BME280;24936;46.328;11.026;2023-02-13T14:32:32;95902.25;;;14.12;30.07
39223;BME280;24936;46.328;11.026;2023-02-13T14:35:04;95896.50;;;14.06;30.44
39223;BME280;24936;46.328;11.026;2023-02-13T14:37:57;95893.84;;;14.06;30.97
39223;BME280;24936;46.328;11.026;2023-02-13T14:46:16;95898.34;;;13.28;30.08
39223;BME280;24936;46.328;11.026;2023-02-13T14:52:06;95893.44;;;13.00;31.49
39223;BME280;24936;46.328;11.026;2023-02-13T14:54:42;95891.63;;;12.78;34.10
39223;BME280;24936;46.328;11.026;2023-02-13T14:57:18;95895.34;;;12.98;33.95
39223;BME280;24936;46.328;11.026;2023-02-13T14:59:52;95887.31;;;13.00;32.99
39223;BME280;24936;46.328;11.026;2023-02-13T15:02:32;95893.88;;;12.72;33.95
39223;BME280;24936;46.328;11.026;2023-02-13T15:05:07;95893.88;;;12.72;34.35
39223;BME280;24936;46.328;11.026;2023-02-13T15:07:44;95889.56;;;12.12;36.13
39223;BME280;24936;46.328;11.026;2023-02-13T15:10:40;95885.88;;;12.26;33.50
39223;BME280;24936;46.328;11.026;2023-02-13T15:13:14;95885.44;;;12.08;33.75
39223;BME280;24936;46.328;11.026;2023-02-13T15:15:40;95887.84;;;12.00;34.84
39223;BME280;24936;46.328;11.026;2023-02-13T15:18:17;95885.44;;;12.08;34.35
39223;BME280;24936;46.328;11.026;2023-02-13T15:20:44;95885.59;;;11.08;35.85
39223;BME280;24936;46.328;11.026;2023-02-13T15:23:21;95886.22;;;10.21;38.79
39223;BME280;24936;46.328;11.026;2023-02-13T15:25:47;95885.00;;;9.59;38.77
39223;BME280;24936;46.328;11.026;2023-02-13T15:28:20;95888.41;;;9.19;41.11
39223;BME280;24936;46.328;11.026;2023-02-13T15:30:57;95882.91;;;8.80;40.33
39223;BME280;24936;46.328;11.026;2023-02-13T15:33:28;95892.53;;;8.51;42.73
39223;BME280;24936;46.328;11.026;2023-02-13T15:36:02;95887.50;;;7.87;43.18
39223;BME280;24936;46.328;11.026;2023-02-13T15:38:34;95894.00;;;7.49;49.43
39223;BME280;24936;46.328;11.026;2023-02-13T15:43:41;95902.94;;;6.97;48.17
39223;BME280;24936;46.328;11.026;2023-02-13T15:46:19;95895.06;;;6.65;49.59
39223;BME280;24936;46.328;11.026;2023-02-13T15:48:45;95900.94;;;6.35;49.80
39223;BME280;24936;46.328;11.026;2023-02-13T15:51:23;95913.50;;;6.10;53.92
39223;BME280;24936;46.328;11.026;2023-02-13T15:53:52;95907.47;;;5.91;52.54
39223;BME280;24936;46.328;11.026;2023-02-13T15:56:18;95914.69;;;5.86;51.46